METAR Data
IDs: Format: Raw Decoded Include TAF

Data at: 1309 UTC 17 Aug 2019

METAR for:KPOU (Poughkeepsie/Dutches, NY, US)
Text:KPOU 171253Z 19003KT 10SM OVC007 24/22 A3002 RMK AO2 CIG 006V013 SLP161 T02390217
Temperature: 23.9°C ( 75°F)
Dewpoint: 21.7°C ( 71°F) [RH = 88%]
Pressure (altimeter):30.02 inches Hg (1016.7 mb) [Sea level pressure: 1016.1 mb]
Winds:from the S (190 degrees) at 3 MPH (3 knots; 1.5 m/s)
Visibility:10 or more sm (16+ km)
Ceiling:700 feet AGL
Clouds: overcast cloud deck at 700 feet AGL
Text:KPOU 171153Z 00000KT 10SM BKN008 BKN019 OVC055 23/21 A3003 RMK AO2 CIG 006V014 SLP165 60048 70048 T02280211 10228 20211 51005
Temperature: 22.8°C ( 73°F)
Dewpoint: 21.1°C ( 70°F) [RH = 90%]
Pressure (altimeter):30.03 inches Hg (1017.0 mb) [Sea level pressure: 1016.5 mb]
Winds:calm
Visibility:10 or more sm (16+ km)
Ceiling:800 feet AGL
Clouds: broken clouds at 800 feet AGL, broken clouds at 1900 feet AGL, overcast cloud deck at 5500 feet AGL
Text:KPOU 171149Z 00000KT 10SM BKN010 BKN019 OVC055 23/21 A3003 RMK AO2 CIG 007V014
Temperature: 23.0°C ( 73°F)
Dewpoint: 21.0°C ( 70°F) [RH = 89%]
Pressure (altimeter):30.03 inches Hg (1017.0 mb)
Winds:calm
Visibility:10 or more sm (16+ km)
Ceiling:1000 feet AGL
Clouds: broken clouds at 1000 feet AGL, broken clouds at 1900 feet AGL, overcast cloud deck at 5500 feet AGL
Text:KPOU 171134Z 12004KT 10SM SCT010 BKN017 OVC055 22/21 A3002 RMK AO2 T02220206
Temperature: 22.2°C ( 72°F)
Dewpoint: 20.6°C ( 69°F) [RH = 91%]
Pressure (altimeter):30.02 inches Hg (1016.7 mb)
Winds:from the ESE (120 degrees) at 5 MPH (4 knots; 2.1 m/s)
Visibility:10 or more sm (16+ km)
Ceiling:1700 feet AGL
Clouds: scattered clouds at 1000 feet AGL, broken clouds at 1700 feet AGL, overcast cloud deck at 5500 feet AGL
Text:KPOU 171104Z 13003KT 9SM BKN009 OVC017 22/21 A3002 RMK AO2 T02220206
Temperature: 22.2°C ( 72°F)
Dewpoint: 20.6°C ( 69°F) [RH = 91%]
Pressure (altimeter):30.02 inches Hg (1016.7 mb)
Winds:from the SE (130 degrees) at 3 MPH (3 knots; 1.5 m/s)
Visibility: 9 sm ( 14 km)
Ceiling:900 feet AGL
Clouds: broken clouds at 900 feet AGL, overcast cloud deck at 1700 feet AGL
Text:KPOU 171053Z 11004KT 10SM SCT008 BKN018 OVC032 22/21 A3002 RMK AO2 SLP163 T02170206
Temperature: 21.7°C ( 71°F)
Dewpoint: 20.6°C ( 69°F) [RH = 93%]
Pressure (altimeter):30.02 inches Hg (1016.7 mb) [Sea level pressure: 1016.3 mb]
Winds:from the ESE (110 degrees) at 5 MPH (4 knots; 2.1 m/s)
Visibility:10 or more sm (16+ km)
Ceiling:1800 feet AGL
Clouds: scattered clouds at 800 feet AGL, broken clouds at 1800 feet AGL, overcast cloud deck at 3200 feet AGL
Text:KPOU 171030Z AUTO 11005KT 9SM SCT012 OVC028 22/21 A3002 RMK AO2 T02170206
Temperature: 21.7°C ( 71°F)
Dewpoint: 20.6°C ( 69°F) [RH = 93%]
Pressure (altimeter):30.02 inches Hg (1016.7 mb)
Winds:from the ESE (110 degrees) at 6 MPH (5 knots; 2.6 m/s)
Visibility: 9 sm ( 14 km)
Ceiling:2800 feet AGL
Clouds: scattered clouds at 1200 feet AGL, overcast cloud deck at 2800 feet AGL
QC Flag:automated observation with no human augmentation
Text:KPOU 171008Z AUTO 12003KT 9SM OVC014 22/21 A3002 RMK AO2 T02170206
Temperature: 21.7°C ( 71°F)
Dewpoint: 20.6°C ( 69°F) [RH = 93%]
Pressure (altimeter):30.02 inches Hg (1016.7 mb)
Winds:from the ESE (120 degrees) at 3 MPH (3 knots; 1.5 m/s)
Visibility: 9 sm ( 14 km)
Ceiling:1400 feet AGL
Clouds: overcast cloud deck at 1400 feet AGL
QC Flag:automated observation with no human augmentation
Text:KPOU 170953Z AUTO 13003KT 10SM OVC016 22/21 A3002 RMK AO2 SLP160 T02170206
Temperature: 21.7°C ( 71°F)
Dewpoint: 20.6°C ( 69°F) [RH = 93%]
Pressure (altimeter):30.02 inches Hg (1016.7 mb) [Sea level pressure: 1016.0 mb]
Winds:from the SE (130 degrees) at 3 MPH (3 knots; 1.5 m/s)
Visibility:10 or more sm (16+ km)
Ceiling:1600 feet AGL
Clouds: overcast cloud deck at 1600 feet AGL
QC Flag:automated observation with no human augmentation
Text:KPOU 170853Z AUTO 00000KT 9SM OVC012 22/21 A3002 RMK AO2 SLP160 60048 T02170206 58004
Temperature: 21.7°C ( 71°F)
Dewpoint: 20.6°C ( 69°F) [RH = 93%]
Pressure (altimeter):30.02 inches Hg (1016.7 mb) [Sea level pressure: 1016.0 mb]
Winds:calm
Visibility: 9 sm ( 14 km)
Ceiling:1200 feet AGL
Clouds: overcast cloud deck at 1200 feet AGL
QC Flag:automated observation with no human augmentation
Text:KPOU 170815Z AUTO 00000KT 10SM BKN014 21/20 A3002 RMK AO2 T02110200
Temperature: 21.1°C ( 70°F)
Dewpoint: 20.0°C ( 68°F) [RH = 93%]
Pressure (altimeter):30.02 inches Hg (1016.7 mb)
Winds:calm
Visibility:10 or more sm (16+ km)
Ceiling:1400 feet AGL
Clouds: broken clouds at 1400 feet AGL
QC Flag:automated observation with no human augmentation
Text:KPOU 170808Z AUTO 00000KT 10SM SCT014 21/20 A3002 RMK AO2 T02110200
Temperature: 21.1°C ( 70°F)
Dewpoint: 20.0°C ( 68°F) [RH = 93%]
Pressure (altimeter):30.02 inches Hg (1016.7 mb)
Winds:calm
Visibility:10 or more sm (16+ km)
Ceiling:at least 12,000 feet AGL
Clouds: scattered clouds at 1400 feet AGL
QC Flag:automated observation with no human augmentation
Text:KPOU 170800Z AUTO 12003KT 10SM BKN015 21/20 A3002 RMK AO2 T02110200
Temperature: 21.1°C ( 70°F)
Dewpoint: 20.0°C ( 68°F) [RH = 93%]
Pressure (altimeter):30.02 inches Hg (1016.7 mb)
Winds:from the ESE (120 degrees) at 3 MPH (3 knots; 1.5 m/s)
Visibility:10 or more sm (16+ km)
Ceiling:1500 feet AGL
Clouds: broken clouds at 1500 feet AGL
QC Flag:automated observation with no human augmentation
Text:KPOU 170753Z AUTO 12003KT 10SM BKN014 21/20 A3002 RMK AO2 SLP162 T02110200
Temperature: 21.1°C ( 70°F)
Dewpoint: 20.0°C ( 68°F) [RH = 93%]
Pressure (altimeter):30.02 inches Hg (1016.7 mb) [Sea level pressure: 1016.2 mb]
Winds:from the ESE (120 degrees) at 3 MPH (3 knots; 1.5 m/s)
Visibility:10 or more sm (16+ km)
Ceiling:1400 feet AGL
Clouds: broken clouds at 1400 feet AGL
QC Flag:automated observation with no human augmentation
Text:KPOU 170742Z AUTO 00000KT 10SM BKN014 OVC019 22/21 A3002 RMK AO2 T02170206
Temperature: 21.7°C ( 71°F)
Dewpoint: 20.6°C ( 69°F) [RH = 93%]
Pressure (altimeter):30.02 inches Hg (1016.7 mb)
Winds:calm
Visibility:10 or more sm (16+ km)
Ceiling:1400 feet AGL
Clouds: broken clouds at 1400 feet AGL, overcast cloud deck at 1900 feet AGL
QC Flag:automated observation with no human augmentation
Text:KPOU 170653Z AUTO 14004KT 10SM BKN020 BKN038 OVC055 22/21 A3003 RMK AO2 RAB04E37 SLP164 P0048 T02170206
Temperature: 21.7°C ( 71°F)
Dewpoint: 20.6°C ( 69°F) [RH = 93%]
Pressure (altimeter):30.03 inches Hg (1017.0 mb) [Sea level pressure: 1016.4 mb]
Winds:from the SE (140 degrees) at 5 MPH (4 knots; 2.1 m/s)
Visibility:10 or more sm (16+ km)
Ceiling:2000 feet AGL
Clouds: broken clouds at 2000 feet AGL, broken clouds at 3800 feet AGL, overcast cloud deck at 5500 feet AGL
QC Flag:automated observation with no human augmentation
Text:KPOU 170633Z AUTO 20006KT 5SM -RA BR SCT022 BKN036 OVC075 22/21 A3003 RMK AO2 RAB04 P0048 T02170206
Temperature: 21.7°C ( 71°F)
Dewpoint: 20.6°C ( 69°F) [RH = 93%]
Pressure (altimeter):30.03 inches Hg (1017.0 mb)
Winds:from the SSW (200 degrees) at 7 MPH (6 knots; 3.1 m/s)
Visibility: 5 sm ( 8 km)
Ceiling:3600 feet AGL
Clouds: scattered clouds at 2200 feet AGL, broken clouds at 3600 feet AGL, overcast cloud deck at 7500 feet AGL
Weather:-RA BR (light rain, mist)
QC Flag:automated observation with no human augmentation
Text:KPOU 170629Z AUTO 16006KT 2SM RA BR FEW017 BKN024 OVC055 22/21 A3002 RMK AO2 RAB04 P0048 T02170206
Temperature: 21.7°C ( 71°F)
Dewpoint: 20.6°C ( 69°F) [RH = 93%]
Pressure (altimeter):30.02 inches Hg (1016.7 mb)
Winds:from the SSE (160 degrees) at 7 MPH (6 knots; 3.1 m/s)
Visibility: 2.00 sm ( 3.22 km)
Ceiling:2400 feet AGL
Clouds: few clouds at 1700 feet AGL, broken clouds at 2400 feet AGL, overcast cloud deck at 5500 feet AGL
Weather:RA BR (moderate rain, mist)
QC Flag:automated observation with no human augmentation
Text:KPOU 170620Z AUTO 12007KT 1/2SM +RA FG VV018 21/21 A3002 RMK AO2 RAB04 P0043 T02110206
Temperature: 21.1°C ( 70°F)
Dewpoint: 20.6°C ( 69°F) [RH = 97%]
Pressure (altimeter):30.02 inches Hg (1016.7 mb)
Winds:from the ESE (120 degrees) at 8 MPH (7 knots; 3.6 m/s)
Visibility: 0.50 sm ( 0.80 km)
Ceiling:indefinite ceiling with vertical visibility of 1800 feet AGL
Clouds:obscured sky
Weather:+RA FG (heavy rain, fog)
QC Flag:automated observation with no human augmentation
Text:KPOU 170611Z AUTO 20003KT 1 3/4SM +RA BR BKN017 BKN024 OVC034 22/21 A3003 RMK AO2 RAB04 P0011 T02220206
Temperature: 22.2°C ( 72°F)
Dewpoint: 20.6°C ( 69°F) [RH = 91%]
Pressure (altimeter):30.03 inches Hg (1017.0 mb)
Winds:from the SSW (200 degrees) at 3 MPH (3 knots; 1.5 m/s)
Visibility: 1.75 sm ( 2.82 km)
Ceiling:1700 feet AGL
Clouds: broken clouds at 1700 feet AGL, broken clouds at 2400 feet AGL, overcast cloud deck at 3400 feet AGL
Weather:+RA BR (heavy rain, mist)
QC Flag:automated observation with no human augmentation
Text:KPOU 170604Z AUTO 28003KT 9SM -RA BKN018 OVC032 23/20 A3003 RMK AO2 RAB04 P0000 T02280200
Temperature: 22.8°C ( 73°F)
Dewpoint: 20.0°C ( 68°F) [RH = 84%]
Pressure (altimeter):30.03 inches Hg (1017.0 mb)
Winds:from the W (280 degrees) at 3 MPH (3 knots; 1.5 m/s)
Visibility: 9 sm ( 14 km)
Ceiling:1800 feet AGL
Clouds: broken clouds at 1800 feet AGL, overcast cloud deck at 3200 feet AGL
Weather:-RA (light rain)
QC Flag:automated observation with no human augmentation
Text:KPOU 170553Z AUTO 00000KT 10SM SCT018 BKN032 OVC044 23/19 A3003 RMK AO2 SLP164 T02280194 10250 20222 52003
Temperature: 22.8°C ( 73°F)
Dewpoint: 19.4°C ( 67°F) [RH = 81%]
Pressure (altimeter):30.03 inches Hg (1017.0 mb) [Sea level pressure: 1016.4 mb]
Winds:calm
Visibility:10 or more sm (16+ km)
Ceiling:3200 feet AGL
Clouds: scattered clouds at 1800 feet AGL, broken clouds at 3200 feet AGL, overcast cloud deck at 4400 feet AGL
QC Flag:automated observation with no human augmentation
Text:KPOU 170453Z AUTO 14003KT 10SM BKN050 BKN060 OVC075 23/20 A3003 RMK AO2 SLP163 T02280200 402940167
Temperature: 22.8°C ( 73°F)
Dewpoint: 20.0°C ( 68°F) [RH = 84%]
Pressure (altimeter):30.03 inches Hg (1017.0 mb) [Sea level pressure: 1016.3 mb]
Winds:from the SE (140 degrees) at 3 MPH (3 knots; 1.5 m/s)
Visibility:10 or more sm (16+ km)
Ceiling:5000 feet AGL
Clouds: broken clouds at 5000 feet AGL, broken clouds at 6000 feet AGL, overcast cloud deck at 7500 feet AGL
QC Flag:automated observation with no human augmentation
Text:KPOU 170353Z AUTO VRB04KT 10SM FEW039 BKN090 OVC110 23/19 A3002 RMK AO2 SLP162 T02280194
Temperature: 22.8°C ( 73°F)
Dewpoint: 19.4°C ( 67°F) [RH = 81%]
Pressure (altimeter):30.02 inches Hg (1016.7 mb) [Sea level pressure: 1016.2 mb]
Winds:variable direction winds at 5 MPH (4 knots; 2.1 m/s)
Visibility:10 or more sm (16+ km)
Ceiling:9000 feet AGL
Clouds: few clouds at 3900 feet AGL, broken clouds at 9000 feet AGL, overcast cloud deck at 11000 feet AGL
QC Flag:automated observation with no human augmentation
Text:KPOU 170253Z AUTO 10003KT 10SM OVC039 23/19 A3002 RMK AO2 SLP161 T02280194 51014
Temperature: 22.8°C ( 73°F)
Dewpoint: 19.4°C ( 67°F) [RH = 81%]
Pressure (altimeter):30.02 inches Hg (1016.7 mb) [Sea level pressure: 1016.1 mb]
Winds:from the E (100 degrees) at 3 MPH (3 knots; 1.5 m/s)
Visibility:10 or more sm (16+ km)
Ceiling:3900 feet AGL
Clouds: overcast cloud deck at 3900 feet AGL
QC Flag:automated observation with no human augmentation
Text:KPOU 170153Z AUTO 12003KT 10SM BKN041 23/19 A3001 RMK AO2 SLP159 T02280194
Temperature: 22.8°C ( 73°F)
Dewpoint: 19.4°C ( 67°F) [RH = 81%]
Pressure (altimeter):30.01 inches Hg (1016.3 mb) [Sea level pressure: 1015.9 mb]
Winds:from the ESE (120 degrees) at 3 MPH (3 knots; 1.5 m/s)
Visibility:10 or more sm (16+ km)
Ceiling:4100 feet AGL
Clouds: broken clouds at 4100 feet AGL
QC Flag:automated observation with no human augmentation
Text:KPOU 170053Z 15004KT 10SM CLR 24/19 A2999 RMK AO2 SLP152 T02390194
Temperature: 23.9°C ( 75°F)
Dewpoint: 19.4°C ( 67°F) [RH = 76%]
Pressure (altimeter):29.99 inches Hg (1015.7 mb) [Sea level pressure: 1015.2 mb]
Winds:from the SSE (150 degrees) at 5 MPH (4 knots; 2.1 m/s)
Visibility:10 or more sm (16+ km)
Ceiling:at least 12,000 feet AGL
Clouds:sky clear below 12,000 feet AGL
Text:KPOU 162353Z 15004KT 10SM CLR 25/19 A2998 RMK AO2 SLP147 T02500189 10294 20250 58002
Temperature: 25.0°C ( 77°F)
Dewpoint: 18.9°C ( 66°F) [RH = 69%]
Pressure (altimeter):29.98 inches Hg (1015.3 mb) [Sea level pressure: 1014.7 mb]
Winds:from the SSE (150 degrees) at 5 MPH (4 knots; 2.1 m/s)
Visibility:10 or more sm (16+ km)
Ceiling:at least 12,000 feet AGL
Clouds:sky clear below 12,000 feet AGL
Text:KPOU 162253Z 18004KT 10SM CLR 27/19 A2998 RMK AO2 SLP147 T02720189
Temperature: 27.2°C ( 81°F)
Dewpoint: 18.9°C ( 66°F) [RH = 61%]
Pressure (altimeter):29.98 inches Hg (1015.3 mb) [Sea level pressure: 1014.7 mb]
Winds:from the S (180 degrees) at 5 MPH (4 knots; 2.1 m/s)
Visibility:10 or more sm (16+ km)
Ceiling:at least 12,000 feet AGL
Clouds:sky clear below 12,000 feet AGL
Text:KPOU 162153Z 17005KT 10SM SCT060 27/18 A2998 RMK AO2 SLP149 T02720183
Temperature: 27.2°C ( 81°F)
Dewpoint: 18.3°C ( 65°F) [RH = 58%]
Pressure (altimeter):29.98 inches Hg (1015.3 mb) [Sea level pressure: 1014.9 mb]
Winds:from the S (170 degrees) at 6 MPH (5 knots; 2.6 m/s)
Visibility:10 or more sm (16+ km)
Ceiling:at least 12,000 feet AGL
Clouds: scattered clouds at 6000 feet AGL
Text:KPOU 162053Z 21006KT 10SM CLR 28/18 A2998 RMK AO2 SLP149 T02830183 58013
Temperature: 28.3°C ( 83°F)
Dewpoint: 18.3°C ( 65°F) [RH = 55%]
Pressure (altimeter):29.98 inches Hg (1015.3 mb) [Sea level pressure: 1014.9 mb]
Winds:from the SSW (210 degrees) at 7 MPH (6 knots; 3.1 m/s)
Visibility:10 or more sm (16+ km)
Ceiling:at least 12,000 feet AGL
Clouds:sky clear below 12,000 feet AGL
Text:KPOU 161953Z 25009KT 10SM OVC040 29/18 A3000 RMK AO2 SLP154 T02890183
Temperature: 28.9°C ( 84°F)
Dewpoint: 18.3°C ( 65°F) [RH = 53%]
Pressure (altimeter):30.00 inches Hg (1016.0 mb) [Sea level pressure: 1015.4 mb]
Winds:from the WSW (250 degrees) at 10 MPH (9 knots; 4.6 m/s)
Visibility:10 or more sm (16+ km)
Ceiling:4000 feet AGL
Clouds: overcast cloud deck at 4000 feet AGL
Text:KPOU 161853Z VRB05KT 10SM BKN039 28/18 A3002 RMK AO2 SLP160 T02780183
Temperature: 27.8°C ( 82°F)
Dewpoint: 18.3°C ( 65°F) [RH = 56%]
Pressure (altimeter):30.02 inches Hg (1016.7 mb) [Sea level pressure: 1016.0 mb]
Winds:variable direction winds at 6 MPH (5 knots; 2.6 m/s)
Visibility:10 or more sm (16+ km)
Ceiling:3900 feet AGL
Clouds: broken clouds at 3900 feet AGL
Text:KPOU 161753Z 24006KT 10SM BKN036 27/18 A3002 RMK AO2 SLP162 T02720183 10283 20189 55003
Temperature: 27.2°C ( 81°F)
Dewpoint: 18.3°C ( 65°F) [RH = 58%]
Pressure (altimeter):30.02 inches Hg (1016.7 mb) [Sea level pressure: 1016.2 mb]
Winds:from the WSW (240 degrees) at 7 MPH (6 knots; 3.1 m/s)
Visibility:10 or more sm (16+ km)
Ceiling:3600 feet AGL
Clouds: broken clouds at 3600 feet AGL
Text:KPOU 161653Z 00000KT 10SM FEW033 27/18 A3002 RMK AO2 SLP162 T02670178
Temperature: 26.7°C ( 80°F)
Dewpoint: 17.8°C ( 64°F) [RH = 58%]
Pressure (altimeter):30.02 inches Hg (1016.7 mb) [Sea level pressure: 1016.2 mb]
Winds:calm
Visibility:10 or more sm (16+ km)
Ceiling:at least 12,000 feet AGL
Clouds: few clouds at 3300 feet AGL
Text:KPOU 161553Z 28005KT 10SM FEW028 25/17 A3003 RMK AO2 SLP164 T02500172
Temperature: 25.0°C ( 77°F)
Dewpoint: 17.2°C ( 63°F) [RH = 62%]
Pressure (altimeter):30.03 inches Hg (1017.0 mb) [Sea level pressure: 1016.4 mb]
Winds:from the W (280 degrees) at 6 MPH (5 knots; 2.6 m/s)
Visibility:10 or more sm (16+ km)
Ceiling:at least 12,000 feet AGL
Clouds: few clouds at 2800 feet AGL
Text:KPOU 161453Z 00000KT 10SM SCT024 23/17 A3003 RMK AO2 SLP165 T02280172 58003
Temperature: 22.8°C ( 73°F)
Dewpoint: 17.2°C ( 63°F) [RH = 71%]
Pressure (altimeter):30.03 inches Hg (1017.0 mb) [Sea level pressure: 1016.5 mb]
Winds:calm
Visibility:10 or more sm (16+ km)
Ceiling:at least 12,000 feet AGL
Clouds: scattered clouds at 2400 feet AGL
Text:KPOU 161353Z 00000KT 10SM BKN021 23/18 A3004 RMK AO2 SLP169 T02280178
Temperature: 22.8°C ( 73°F)
Dewpoint: 17.8°C ( 64°F) [RH = 73%]
Pressure (altimeter):30.04 inches Hg (1017.4 mb) [Sea level pressure: 1016.9 mb]
Winds:calm
Visibility:10 or more sm (16+ km)
Ceiling:2100 feet AGL
Clouds: broken clouds at 2100 feet AGL